Time;durP1;ratioP1;P1;durP2;ratioP2;P2;SDS_P1;SDS_P2;PMS_P1;PMS_P2;Temp;Humidity;BMP_temperature;BMP_pressure;BME280_temperature;BME280_humidity;BME280_pressure;Samples;Min_cycle;Max_cycle;Signal;HPM_P1;HPM_P2
2021/01/12 00:00:22;;;;;;;;;;;;;;;21.67;42.83;100375.84;2061222;28;3882;-68
2021/01/12 00:01:22;;;;;;;;;;;;;;;21.68;42.85;100368.13;2058726;28;3888;-71
2021/01/12 00:02:22;;;;;;;;;;;;;;;21.64;42.94;100359.50;2060515;28;3883;-71
2021/01/12 00:03:22;;;;;;;;;;;;;;;21.70;42.78;100360.06;2061748;28;4005;-72
2021/01/12 00:04:22;;;;;;;;;;;;;;;21.76;42.73;100353.69;2060291;28;3937;-70
2021/01/12 00:05:22;;;;;;;;;;;;;;;21.74;42.74;100347.53;2058825;28;4045;-68
2021/01/12 00:06:22;;;;;;;;;;;;;;;21.70;42.86;100357.22;2059471;28;3866;-68
2021/01/12 00:07:23;;;;;;;;;;;;;;;21.66;43.06;100354.25;2061499;28;4043;-68
2021/01/12 00:08:23;;;;;;;;;;;;;;;21.68;42.82;100354.72;2061477;28;3911;-68
2021/01/12 00:09:23;;;;;;;;;;;;;;;21.68;43.15;100349.03;2058941;28;3879;-68
2021/01/12 00:10:23;;;;;;;;;;;;;;;21.73;42.88;100342.22;2060915;28;4292;-69
2021/01/12 00:11:23;;;;;;;;;;;;;;;21.73;42.94;100350.78;2060749;28;3960;-69
2021/01/12 00:12:23;;;;;;;;;;;;;;;21.73;43.02;100343.06;2061260;28;3915;-68
2021/01/12 00:13:25;;;;;;;;;;;;;;;21.74;42.92;100347.53;2061570;28;3921;-68
2021/01/12 00:14:32;;;;;;;;;;;;;;;21.74;43.07;100341.03;2059624;28;4234;-69
2021/01/12 00:15:33;;;;;;;;;;;;;;;21.72;42.99;100340.56;2060777;28;3894;-69
2021/01/12 00:16:33;;;;;;;;;;;;;;;21.76;43.00;100339.47;2060025;28;3970;-71
2021/01/12 00:17:33;;;;;;;;;;;;;;;21.79;42.77;100333.03;2060233;28;3941;-72
2021/01/12 00:18:33;;;;;;;;;;;;;;;21.85;43.02;100332.72;2059764;28;3898;-71
2021/01/12 00:19:33;;;;;;;;;;;;;;;21.87;42.90;100336.03;2060523;28;4258;-70
2021/01/12 00:20:33;;;;;;;;;;;;;;;21.84;42.98;100328.25;2059824;28;4394;-70
2021/01/12 00:21:33;;;;;;;;;;;;;;;21.82;43.00;100322.91;2060242;28;4398;-72
2021/01/12 00:22:34;;;;;;;;;;;;;;;21.77;43.11;100329.72;2061646;28;3902;-70
2021/01/12 00:23:34;;;;;;;;;;;;;;;21.78;43.08;100322.00;2060959;28;3971;-71
2021/01/12 00:24:34;;;;;;;;;;;;;;;21.77;43.05;100321.16;2059839;28;4455;-71
2021/01/12 00:25:34;;;;;;;;;;;;;;;21.77;42.86;100321.16;2061109;28;4002;-71
2021/01/12 00:26:34;;;;;;;;;;;;;;;21.77;42.99;100320.34;2059834;28;4400;-70
2021/01/12 00:27:34;;;;;;;;;;;;;;;21.72;42.99;100318.63;2061187;28;4334;-70
2021/01/12 00:28:34;;;;;;;;;;;;;;;21.72;43.19;100314.94;2061887;28;4434;-69
2021/01/12 00:29:34;;;;;;;;;;;;;;;21.72;42.94;100315.78;2060079;28;3778;-70
2021/01/12 00:30:34;;;;;;;;;;;;;;;21.75;42.94;100320.72;2061082;28;4041;-69
2021/01/12 00:31:34;;;;;;;;;;;;;;;21.72;42.96;100321.47;2058185;28;4409;-70
2021/01/12 00:32:35;;;;;;;;;;;;;;;21.72;43.00;100309.25;2060634;28;3827;-71
2021/01/12 00:33:35;;;;;;;;;;;;;;;21.72;42.99;100310.09;2061208;28;3854;-69
2021/01/12 00:34:35;;;;;;;;;;;;;;;21.68;43.13;100314.03;2059726;28;4053;-69
2021/01/12 00:35:35;;;;;;;;;;;;;;;21.71;43.17;100316.97;2060885;28;4886;-68
2021/01/12 00:36:35;;;;;;;;;;;;;;;21.69;43.05;100310.81;2059526;28;4095;-70
2021/01/12 00:37:35;;;;;;;;;;;;;;;21.71;43.02;100305.56;2060805;28;4185;-70
2021/01/12 00:38:35;;;;;;;;;;;;;;;21.72;43.09;100307.25;2059857;28;3786;-69
2021/01/12 00:39:35;;;;;;;;;;;;;;;21.74;42.93;100309.69;2064023;28;3878;-70
2021/01/12 00:40:35;;;;;;;;;;;;;;;21.76;42.98;100302.44;2063922;28;4083;-71
2021/01/12 00:41:35;;;;;;;;;;;;;;;21.78;43.18;100297.22;2062543;28;4274;-71
2021/01/12 00:42:35;;;;;;;;;;;;;;;21.80;43.09;100302.50;2063890;28;3926;-71
2021/01/12 00:43:36;;;;;;;;;;;;;;;21.84;42.99;100300.59;2064104;28;3904;-71
2021/01/12 00:44:36;;;;;;;;;;;;;;;21.90;42.79;100295.44;2063004;28;3818;-71
2021/01/12 00:45:36;;;;;;;;;;;;;;;21.92;42.83;100301.59;2062439;28;3886;-70
2021/01/12 00:46:36;;;;;;;;;;;;;;;21.91;42.88;100302.75;2063865;28;4206;-69
2021/01/12 00:47:36;;;;;;;;;;;;;;;21.87;42.72;100297.00;2061956;28;4051;-70
2021/01/12 00:48:36;;;;;;;;;;;;;;;21.84;42.94;100299.78;2063017;28;4045;-71
2021/01/12 00:49:36;;;;;;;;;;;;;;;21.85;42.73;100292.88;2064305;28;4116;-72
2021/01/12 00:50:36;;;;;;;;;;;;;;;21.80;42.83;100286.25;2063072;28;4024;-69
2021/01/12 00:51:36;;;;;;;;;;;;;;;21.80;42.88;100296.81;2062594;28;4373;-69
2021/01/12 00:52:36;;;;;;;;;;;;;;;21.81;43.07;100289.94;2063801;28;4055;-68
2021/01/12 00:53:37;;;;;;;;;;;;;;;21.82;42.90;100287.91;2063753;28;4226;-69
2021/01/12 00:54:37;;;;;;;;;;;;;;;21.80;42.86;100274.84;2054183;28;3865;-68
2021/01/12 00:55:37;;;;;;;;;;;;;;;21.80;43.19;100276.88;2053683;28;4006;-69
2021/01/12 00:56:37;;;;;;;;;;;;;;;21.78;43.09;100274.44;2064547;28;3896;-68
2021/01/12 00:57:37;;;;;;;;;;;;;;;21.76;43.10;100276.81;2064505;28;4344;-68
2021/01/12 00:58:37;;;;;;;;;;;;;;;21.78;42.92;100277.28;2063999;28;4090;-69
2021/01/12 00:59:37;;;;;;;;;;;;;;;21.78;42.95;100277.28;2060910;28;3793;-68
2021/01/12 01:00:37;;;;;;;;;;;;;;;21.78;42.94;100273.63;2063223;28;4051;-68
2021/01/12 01:01:37;;;;;;;;;;;;;;;21.72;42.99;100270.22;2061848;28;3991;-68
2021/01/12 01:02:38;;;;;;;;;;;;;;;21.73;43.15;100271.03;2063859;28;3881;-68
2021/01/12 01:03:38;;;;;;;;;;;;;;;21.77;43.04;100267.06;2063370;28;4187;-68
2021/01/12 01:04:38;;;;;;;;;;;;;;;21.78;43.17;100271.59;2062617;28;4012;-69
2021/01/12 01:05:38;;;;;;;;;;;;;;;21.77;43.12;100269.91;2062935;28;3900;-70
2021/01/12 01:06:38;;;;;;;;;;;;;;;21.84;43.07;100271.28;2061024;28;3891;-69
2021/01/12 01:07:38;;;;;;;;;;;;;;;21.86;42.97;100261.19;2063192;28;4218;-70
2021/01/12 01:08:38;;;;;;;;;;;;;;;21.88;43.00;100263.63;2062843;28;4000;-70
2021/01/12 01:09:38;;;;;;;;;;;;;;;21.90;43.04;100266.94;2062148;28;4192;-71
2021/01/12 01:10:38;;;;;;;;;;;;;;;21.90;42.98;100266.94;2063155;28;4177;-71
2021/01/12 01:11:38;;;;;;;;;;;;;;;21.89;43.11;100263.28;2061690;28;3786;-71
2021/01/12 01:12:38;;;;;;;;;;;;;;;21.90;42.91;100266.94;2054639;28;4285;-72
2021/01/12 01:13:38;;;;;;;;;;;;;;;21.90;43.11;100262.06;2055107;28;4256;-71
2021/01/12 01:14:38;;;;;;;;;;;;;;;21.94;43.13;100257.25;2063406;28;4054;-71
2021/01/12 01:15:39;;;;;;;;;;;;;;;22.00;42.91;100263.50;2062674;28;4416;-69
2021/01/12 01:16:39;;;;;;;;;;;;;;;22.04;42.62;100263.59;2062235;28;4083;-70
2021/01/12 01:17:39;;;;;;;;;;;;;;;22.06;42.68;100264.03;2064182;28;4391;-71
2021/01/12 01:18:39;;;;;;;;;;;;;;;22.06;42.95;100252.66;2063616;28;4242;-70
2021/01/12 01:19:39;;;;;;;;;;;;;;;22.08;42.88;100250.22;2062594;28;3941;-73
2021/01/12 01:20:39;;;;;;;;;;;;;;;22.01;43.18;100253.75;2063405;28;4182;-70
2021/01/12 01:21:39;;;;;;;;;;;;;;;22.03;43.29;100254.22;2062399;28;4030;-69
2021/01/12 01:22:39;;;;;;;;;;;;;;;21.99;43.12;100251.28;2063834;28;4090;-73
2021/01/12 01:23:39;;;;;;;;;;;;;;;22.02;43.12;100246.84;2054901;28;3938;-73
2021/01/12 01:24:39;;;;;;;;;;;;;;;22.00;43.17;100247.25;2054675;28;3917;-72
2021/01/12 01:25:40;;;;;;;;;;;;;;;21.96;43.51;100254.88;2062943;28;4007;-71
2021/01/12 01:26:40;;;;;;;;;;;;;;;21.89;43.44;100246.19;2064079;28;3997;-71
2021/01/12 01:27:40;;;;;;;;;;;;;;;21.89;43.46;100239.66;2064410;28;3899;-71
2021/01/12 01:28:40;;;;;;;;;;;;;;;21.86;43.44;100243.25;2063334;28;4024;-72
2021/01/12 01:29:40;;;;;;;;;;;;;;;21.88;43.54;100241.69;2061995;28;3980;-71
2021/01/12 01:30:41;;;;;;;;;;;;;;;21.92;43.58;100236.91;2061728;28;3887;-73
2021/01/12 01:31:42;;;;;;;;;;;;;;;21.88;43.40;100238.81;2062491;28;4074;-74
2021/01/12 01:32:42;;;;;;;;;;;;;;;21.92;43.44;100236.09;2063360;28;4160;-72
2021/01/12 01:33:43;;;;;;;;;;;;;;;21.92;43.60;100242.59;2062669;28;3878;-73
2021/01/12 01:34:43;;;;;;;;;;;;;;;21.88;43.36;100241.69;2063659;28;4272;-73
2021/01/12 01:35:43;;;;;;;;;;;;;;;21.90;43.56;100236.44;2061609;28;3904;-73
2021/01/12 01:36:43;;;;;;;;;;;;;;;21.94;43.42;100225.13;2063775;28;3939;-72
2021/01/12 01:37:44;;;;;;;;;;;;;;;21.90;43.59;100230.75;2062146;28;3906;-72
2021/01/12 01:38:44;;;;;;;;;;;;;;;21.92;43.52;100234.06;2063449;28;3792;-73
2021/01/12 01:39:44;;;;;;;;;;;;;;;21.93;43.50;100232.03;2062509;28;4123;-72
2021/01/12 01:40:44;;;;;;;;;;;;;;;21.90;43.50;100229.94;2063306;28;4196;-73
2021/01/12 01:41:44;;;;;;;;;;;;;;;21.91;43.42;100228.72;2061859;28;4001;-73
2021/01/12 01:42:44;;;;;;;;;;;;;;;21.90;43.38;100225.06;2063641;28;4381;-72
2021/01/12 01:43:44;;;;;;;;;;;;;;;21.87;43.46;100217.25;2061764;28;4058;-72
2021/01/12 01:44:44;;;;;;;;;;;;;;;21.93;43.40;100218.59;2064110;28;4299;-71
2021/01/12 01:45:44;;;;;;;;;;;;;;;21.94;43.45;100219.41;2063579;28;4219;-72
2021/01/12 01:46:44;;;;;;;;;;;;;;;21.99;43.29;100221.97;2063161;28;4033;-78
2021/01/12 01:47:45;;;;;;;;;;;;;;;21.78;43.44;100220.31;2064004;28;4323;-73
2021/01/12 01:48:45;;;;;;;;;;;;;;;21.48;44.10;100207.84;2063820;28;4202;-73
2021/01/12 01:49:45;;;;;;;;;;;;;;;21.27;44.68;100213.81;2062922;28;3896;-72
2021/01/12 01:50:45;;;;;;;;;;;;;;;21.30;44.45;100208.22;2061177;28;4429;-72
2021/01/12 01:51:45;;;;;;;;;;;;;;;21.34;44.22;100212.00;2060757;28;3965;-73
2021/01/12 01:52:45;;;;;;;;;;;;;;;21.41;44.21;100213.38;2062554;28;4088;-73
2021/01/12 01:53:45;;;;;;;;;;;;;;;21.46;44.17;100210.25;2062603;28;3976;-71
2021/01/12 01:54:45;;;;;;;;;;;;;;;21.56;43.54;100206.81;2061838;28;4129;-73
2021/01/12 01:55:45;;;;;;;;;;;;;;;21.63;43.48;100214.69;2062797;28;4653;-75
2021/01/12 01:56:45;;;;;;;;;;;;;;;21.71;43.39;100203.06;2062195;28;3909;-72
2021/01/12 01:57:45;;;;;;;;;;;;;;;21.74;43.23;100205.19;2060369;28;4013;-71
2021/01/12 01:58:46;;;;;;;;;;;;;;;21.70;43.43;100203.47;2062438;28;4031;-71
2021/01/12 01:59:46;;;;;;;;;;;;;;;21.65;43.62;100196.03;2062159;28;4127;-71
2021/01/12 02:00:46;;;;;;;;;;;;;;;21.60;43.86;100201.19;2062250;28;3879;-72
2021/01/12 02:01:46;;;;;;;;;;;;;;;21.63;43.71;100197.59;2060741;28;4450;-72
2021/01/12 02:02:46;;;;;;;;;;;;;;;21.61;43.63;100200.00;2061752;28;3934;-71
2021/01/12 02:03:46;;;;;;;;;;;;;;;21.58;43.69;100195.88;2062685;28;4086;-72
2021/01/12 02:04:46;;;;;;;;;;;;;;;21.55;43.66;100190.91;2061556;28;4087;-72
2021/01/12 02:05:46;;;;;;;;;;;;;;;21.55;43.75;100188.06;2062322;28;3763;-71
2021/01/12 02:06:47;;;;;;;;;;;;;;;21.59;43.80;100197.53;2062096;28;4029;-72
2021/01/12 02:07:47;;;;;;;;;;;;;;;21.56;43.80;100184.06;2061076;28;3995;-71
2021/01/12 02:08:47;;;;;;;;;;;;;;;21.53;44.02;100179.06;2061455;28;3821;-72
2021/01/12 02:09:47;;;;;;;;;;;;;;;21.53;43.80;100184.78;2062328;28;4032;-71
2021/01/12 02:10:47;;;;;;;;;;;;;;;21.51;44.13;100185.16;2062125;28;4118;-71
2021/01/12 02:11:47;;;;;;;;;;;;;;;21.48;43.99;100177.38;2061535;28;4041;-70
2021/01/12 02:12:47;;;;;;;;;;;;;;;21.50;43.93;100176.97;2062182;28;3945;-71
2021/01/12 02:13:49;;;;;;;;;;;;;;;21.47;43.85;100181.41;2062728;28;3837;-71
2021/01/12 02:14:49;;;;;;;;;;;;;;;21.50;44.04;100180.69;2062430;28;6149;-70
2021/01/12 02:15:49;;;;;;;;;;;;;;;21.51;43.92;100176.63;2062549;28;3924;-70
2021/01/12 02:16:49;;;;;;;;;;;;;;;21.50;43.82;100169.28;2062232;28;3842;-70
2021/01/12 02:17:49;;;;;;;;;;;;;;;21.51;43.79;100167.25;2061065;28;4216;-71
2021/01/12 02:18:49;;;;;;;;;;;;;;;21.49;44.05;100163.97;2062605;28;4011;-70
2021/01/12 02:19:49;;;;;;;;;;;;;;;21.44;43.96;100156.53;2062027;28;4040;-71
2021/01/12 02:20:50;;;;;;;;;;;;;;;21.45;44.02;100165.88;2062382;28;3809;-71
2021/01/12 02:21:50;;;;;;;;;;;;;;;21.42;43.99;100161.78;2061339;28;3858;-71
2021/01/12 02:22:50;;;;;;;;;;;;;;;21.40;44.14;100149.13;2063091;28;4117;-71
2021/01/12 02:23:50;;;;;;;;;;;;;;;21.39;44.18;100150.31;2061937;28;4008;-71
2021/01/12 02:24:50;;;;;;;;;;;;;;;21.40;44.09;100143.44;2062297;28;4197;-71
2021/01/12 02:25:50;;;;;;;;;;;;;;;21.39;44.28;100153.16;2063326;28;4021;-71
2021/01/12 02:26:50;;;;;;;;;;;;;;;21.35;44.23;100142.50;2061084;28;3828;-71
2021/01/12 02:27:50;;;;;;;;;;;;;;;21.34;44.30;100145.72;2059172;28;3872;-71
2021/01/12 02:28:50;;;;;;;;;;;;;;;21.33;44.31;100147.72;2059887;28;4132;-71
2021/01/12 02:31:16;;;;;;;;;;;;;;;21.28;44.28;100135.81;2057980;28;5238;-71
2021/01/12 02:32:16;;;;;;;;;;;;;;;21.25;44.44;100136.56;2061599;28;4032;-71
2021/01/12 02:33:16;;;;;;;;;;;;;;;21.25;44.55;100134.53;2059885;28;4062;-71
2021/01/12 02:34:16;;;;;;;;;;;;;;;21.26;44.45;100129.69;2063409;28;3943;-71
2021/01/12 02:35:16;;;;;;;;;;;;;;;21.27;44.40;100135.00;2061513;28;3798;-71
2021/01/12 02:36:17;;;;;;;;;;;;;;;21.26;44.56;100135.38;2061663;28;4453;-71
2021/01/12 02:37:17;;;;;;;;;;;;;;;21.26;44.35;100130.50;2061019;28;4158;-71
2021/01/12 02:38:17;;;;;;;;;;;;;;;21.27;44.38;100123.59;2061485;28;4102;-71
2021/01/12 02:39:17;;;;;;;;;;;;;;;21.27;44.28;100123.59;2062273;28;4056;-71
2021/01/12 02:40:17;;;;;;;;;;;;;;;21.28;44.20;100119.59;2062029;28;4028;-71
2021/01/12 02:41:17;;;;;;;;;;;;;;;21.28;44.31;100122.44;2060348;28;3964;-71
2021/01/12 02:42:18;;;;;;;;;;;;;;;21.30;44.23;100119.19;2061036;28;4109;-71
2021/01/12 02:43:18;;;;;;;;;;;;;;;21.30;44.13;100119.19;2062139;28;3913;-71
2021/01/12 02:44:18;;;;;;;;;;;;;;;21.31;44.13;100104.63;2061309;28;4056;-71
2021/01/12 02:45:18;;;;;;;;;;;;;;;21.27;44.24;100103.69;2062366;28;4229;-71
2021/01/12 02:46:18;;;;;;;;;;;;;;;21.22;44.28;100106.84;2063335;28;4124;-71
2021/01/12 02:47:18;;;;;;;;;;;;;;;21.22;44.46;100106.84;2062272;28;3829;-71
2021/01/12 02:48:18;;;;;;;;;;;;;;;21.21;44.39;100108.03;2061849;28;4066;-71
2021/01/12 02:49:18;;;;;;;;;;;;;;;21.21;44.43;100102.34;2060920;28;4046;-71
2021/01/12 02:50:18;;;;;;;;;;;;;;;21.19;44.49;100101.88;2061376;28;3798;-71
2021/01/12 02:51:18;;;;;;;;;;;;;;;21.18;44.32;100086.03;2059846;28;4171;-71
2021/01/12 02:52:18;;;;;;;;;;;;;;;21.17;44.48;100080.69;2061339;28;4107;-71
2021/01/12 02:53:19;;;;;;;;;;;;;;;21.16;44.36;100088.41;2061577;28;3789;-71
2021/01/12 02:54:19;;;;;;;;;;;;;;;21.15;44.46;100086.78;2061709;28;3884;-71
2021/01/12 02:55:19;;;;;;;;;;;;;;;21.17;44.40;100092.91;2061871;28;3892;-71
2021/01/12 02:56:19;;;;;;;;;;;;;;;21.18;44.34;100079.53;2061194;28;4308;-70
2021/01/12 02:57:19;;;;;;;;;;;;;;;21.18;44.38;100083.19;2061698;28;4390;-70
2021/01/12 02:58:19;;;;;;;;;;;;;;;21.19;44.46;100076.28;2061937;28;4034;-70
2021/01/12 02:59:19;;;;;;;;;;;;;;;21.18;44.37;100079.53;2060227;28;4420;-70
2021/01/12 03:00:19;;;;;;;;;;;;;;;21.17;44.47;100077.84;2061888;28;4037;-71
2021/01/12 03:01:19;;;;;;;;;;;;;;;21.16;44.36;100074.19;2060372;28;4087;-71
2021/01/12 03:02:19;;;;;;;;;;;;;;;21.17;44.58;100075.00;2061030;28;4035;-71
2021/01/12 03:03:20;;;;;;;;;;;;;;;21.15;44.55;100078.25;2061559;28;3872;-70
2021/01/12 03:04:20;;;;;;;;;;;;;;;21.17;44.32;100077.84;2062425;28;4036;-71
2021/01/12 03:05:20;;;;;;;;;;;;;;;21.19;44.48;100075.47;2061427;28;3840;-70
2021/01/12 03:06:20;;;;;;;;;;;;;;;21.19;44.39;100064.09;2061022;28;4020;-70
2021/01/12 03:07:20;;;;;;;;;;;;;;;21.17;44.46;100064.44;2062005;28;3892;-71
2021/01/12 03:08:20;;;;;;;;;;;;;;;21.19;44.24;100062.06;2061325;28;3998;-71
2021/01/12 03:09:20;;;;;;;;;;;;;;;21.23;44.29;100050.78;2060849;28;3881;-71
2021/01/12 03:10:20;;;;;;;;;;;;;;;21.25;44.42;100054.06;2063798;28;3910;-71
2021/01/12 03:11:20;;;;;;;;;;;;;;;21.27;44.20;100055.34;2059876;28;3907;-71
2021/01/12 03:12:20;;;;;;;;;;;;;;;21.26;44.40;100052.88;2062288;28;3878;-71
2021/01/12 03:13:20;;;;;;;;;;;;;;;21.23;44.26;100050.78;2061436;28;3827;-70
2021/01/12 03:14:21;;;;;;;;;;;;;;;21.24;44.37;100058.94;2061368;28;3927;-72
2021/01/12 03:15:21;;;;;;;;;;;;;;;21.25;44.39;100051.22;2062238;28;4035;-71
2021/01/12 03:16:22;;;;;;;;;;;;;;;21.23;44.42;100045.09;2060694;28;4118;-71
2021/01/12 03:17:22;;;;;;;;;;;;;;;21.22;44.50;100047.09;2061854;28;4056;-71
2021/01/12 03:18:22;;;;;;;;;;;;;;;21.21;44.34;100051.16;2060963;28;4010;-71
2021/01/12 03:19:22;;;;;;;;;;;;;;;21.23;44.44;100051.59;2061174;28;4143;-71
2021/01/12 03:20:26;;;;;;;;;;;;;;;21.23;44.27;100048.75;2061679;28;4088;-72
2021/01/12 03:21:26;;;;;;;;;;;;;;;21.22;44.33;100049.13;2059892;28;4132;-72
2021/01/12 03:22:26;;;;;;;;;;;;;;;21.20;44.33;100040.13;2061405;28;3935;-71
2021/01/12 03:23:26;;;;;;;;;;;;;;;21.20;44.20;100042.97;2061092;28;4109;-71
2021/01/12 03:24:26;;;;;;;;;;;;;;;21.22;44.41;100023.50;2060774;28;4034;-71
2021/01/12 03:25:26;;;;;;;;;;;;;;;21.19;44.46;100019.41;2062171;28;4093;-71
2021/01/12 03:26:26;;;;;;;;;;;;;;;21.20;44.44;100025.91;2061305;28;4058;-72
2021/01/12 03:27:26;;;;;;;;;;;;;;;21.16;44.45;100028.69;2061659;28;4108;-71
2021/01/12 03:28:26;;;;;;;;;;;;;;;21.16;44.48;100030.72;2061029;28;4097;-72
2021/01/12 03:29:26;;;;;;;;;;;;;;;21.15;44.57;100026.22;2060915;28;3820;-71
2021/01/12 03:30:26;;;;;;;;;;;;;;;21.15;44.61;100046.13;2061140;28;4130;-71
2021/01/12 03:31:26;;;;;;;;;;;;;;;21.15;44.51;100027.03;2060518;28;4077;-72
2021/01/12 03:32:26;;;;;;;;;;;;;;;21.17;44.40;100035.19;2062239;28;4247;-71
2021/01/12 03:33:26;;;;;;;;;;;;;;;21.16;44.52;100011.63;2061549;28;3794;-71
2021/01/12 03:34:27;;;;;;;;;;;;;;;21.15;44.56;100017.69;2061494;28;4037;-71
2021/01/12 03:35:27;;;;;;;;;;;;;;;21.17;44.38;100018.94;2062142;28;3969;-71
2021/01/12 03:36:27;;;;;;;;;;;;;;;21.17;44.48;100012.44;2061986;28;3890;-72
2021/01/12 03:37:27;;;;;;;;;;;;;;;21.15;44.38;100015.66;2059880;28;4082;-71
2021/01/12 03:38:27;;;;;;;;;;;;;;;21.14;44.54;100008.31;2061071;28;3996;-71
2021/01/12 03:39:27;;;;;;;;;;;;;;;21.12;44.50;100007.88;2051219;28;3896;-71
2021/01/12 03:40:27;;;;;;;;;;;;;;;21.11;44.74;100026.94;2053706;28;4322;-71
2021/01/12 03:41:27;;;;;;;;;;;;;;;21.11;44.46;100015.56;2060246;28;3919;-71
2021/01/12 03:42:27;;;;;;;;;;;;;;;21.15;44.44;100018.50;2061393;28;4029;-72
2021/01/12 03:43:27;;;;;;;;;;;;;;;21.14;44.42;100014.00;2061164;28;3890;-72
2021/01/12 03:44:27;;;;;;;;;;;;;;;21.14;44.52;100019.69;2061432;28;4113;-72
2021/01/12 03:45:27;;;;;;;;;;;;;;;21.16;44.46;100007.97;2061540;28;4045;-71
2021/01/12 03:46:28;;;;;;;;;;;;;;;21.17;44.43;100004.72;2062238;28;4120;-71
2021/01/12 03:47:28;;;;;;;;;;;;;;;21.16;44.44;100008.78;2061882;28;3818;-72
2021/01/12 03:48:28;;;;;;;;;;;;;;;21.17;44.38;100018.94;2060935;28;4045;-71
2021/01/12 03:49:28;;;;;;;;;;;;;;;21.17;44.36;100010.41;2060794;28;4138;-71
2021/01/12 03:50:28;;;;;;;;;;;;;;;21.13;44.41;100007.50;2061183;28;3887;-71
2021/01/12 03:51:28;;;;;;;;;;;;;;;21.16;44.41;99997.41;2060285;28;4102;-71
2021/01/12 03:52:28;;;;;;;;;;;;;;;21.14;44.49;99994.09;2062504;28;3890;-71
2021/01/12 03:53:28;;;;;;;;;;;;;;;21.17;44.49;100003.91;2060595;28;4119;-71
2021/01/12 03:54:28;;;;;;;;;;;;;;;21.16;44.53;100000.25;2061184;28;4061;-71
2021/01/12 03:55:28;;;;;;;;;;;;;;;21.16;44.48;100002.25;2061220;28;4051;-71
2021/01/12 03:56:28;;;;;;;;;;;;;;;21.18;44.44;100003.53;2059825;28;3805;-71
2021/01/12 03:57:28;;;;;;;;;;;;;;;21.20;44.40;100003.16;2061739;28;3898;-71
2021/01/12 03:58:29;;;;;;;;;;;;;;;21.24;44.28;100004.88;2061430;28;3883;-70
2021/01/12 03:59:29;;;;;;;;;;;;;;;21.24;44.30;99995.53;2061106;28;3981;-71
2021/01/12 04:00:29;;;;;;;;;;;;;;;21.20;44.43;99991.78;2060845;28;3961;-71
2021/01/12 04:01:29;;;;;;;;;;;;;;;21.21;44.29;99977.19;2059837;28;3883;-71
2021/01/12 04:02:29;;;;;;;;;;;;;;;21.18;44.44;99982.81;2061226;28;5076;-71
2021/01/12 04:03:29;;;;;;;;;;;;;;;21.18;44.59;99982.81;2061034;28;4041;-71
2021/01/12 04:04:29;;;;;;;;;;;;;;;21.19;44.62;99990.13;2061080;28;4077;-71
2021/01/12 04:05:29;;;;;;;;;;;;;;;21.19;44.43;99988.09;2061361;28;3882;-71
2021/01/12 04:06:29;;;;;;;;;;;;;;;21.19;44.38;99982.41;2061848;28;3905;-70
2021/01/12 04:07:29;;;;;;;;;;;;;;;21.17;44.61;99984.00;2061619;28;3930;-71
2021/01/12 04:08:29;;;;;;;;;;;;;;;21.16;44.70;99986.00;2060711;28;4133;-71
2021/01/12 04:09:29;;;;;;;;;;;;;;;21.17;44.46;99987.66;2060186;28;5249;-71
2021/01/12 04:10:29;;;;;;;;;;;;;;;21.17;44.64;99972.63;2061869;28;4034;-71
2021/01/12 04:11:30;;;;;;;;;;;;;;;21.18;44.48;99971.44;2059544;28;4113;-71
2021/01/12 04:12:30;;;;;;;;;;;;;;;21.18;44.44;99980.78;2061559;28;3879;-71
2021/01/12 04:13:30;;;;;;;;;;;;;;;21.18;44.63;99972.25;2060596;28;4041;-71
2021/01/12 04:14:30;;;;;;;;;;;;;;;21.18;44.61;99977.94;2060349;28;4045;-71
2021/01/12 04:15:30;;;;;;;;;;;;;;;21.17;44.53;99973.44;2061565;28;3860;-71
2021/01/12 04:16:30;;;;;;;;;;;;;;;21.18;44.67;99971.44;2061284;28;4018;-70
2021/01/12 04:17:30;;;;;;;;;;;;;;;21.17;44.66;99973.44;2061039;28;4012;-71
2021/01/12 04:18:30;;;;;;;;;;;;;;;21.18;44.61;99975.09;2059018;28;4148;-71
2021/01/12 04:19:30;;;;;;;;;;;;;;;21.19;44.69;99970.22;2060029;28;4081;-72
2021/01/12 04:20:30;;;;;;;;;;;;;;;21.15;44.75;99967.31;2060457;28;3997;-71
2021/01/12 04:21:30;;;;;;;;;;;;;;;21.17;44.77;99956.38;2059487;28;4022;-71
2021/01/12 04:22:31;;;;;;;;;;;;;;;21.16;44.61;99971.78;2061069;28;3908;-71
2021/01/12 04:23:31;;;;;;;;;;;;;;;21.18;44.77;99966.56;2061229;28;3898;-71
2021/01/12 04:24:31;;;;;;;;;;;;;;;21.22;44.58;99960.94;2061003;28;4024;-71
2021/01/12 04:25:31;;;;;;;;;;;;;;;21.24;44.57;99972.78;2061334;28;4916;-71
2021/01/12 04:26:31;;;;;;;;;;;;;;;21.25;44.64;99960.19;2060724;28;4220;-71
2021/01/12 04:27:31;;;;;;;;;;;;;;;21.25;44.71;99952.47;2061196;28;3869;-71
2021/01/12 04:28:31;;;;;;;;;;;;;;;21.25;44.52;99960.19;2061920;28;4150;-72
2021/01/12 04:29:31;;;;;;;;;;;;;;;21.25;44.53;99960.19;2060348;28;3897;-71
2021/01/12 04:30:31;;;;;;;;;;;;;;;21.22;44.64;99961.75;2061025;28;4338;-71
2021/01/12 04:31:31;;;;;;;;;;;;;;;21.19;44.86;99948.28;2059723;28;4135;-72
2021/01/12 04:32:31;;;;;;;;;;;;;;;21.20;44.94;99958.47;2061112;28;4368;-72
2021/01/12 04:33:31;;;;;;;;;;;;;;;21.17;45.05;99950.69;2061279;28;3951;-71
2021/01/12 04:34:32;;;;;;;;;;;;;;;21.21;44.85;99953.63;2060360;28;3937;-71
2021/01/12 04:35:32;;;;;;;;;;;;;;;21.22;44.82;99949.56;2061187;28;3810;-72
2021/01/12 04:36:32;;;;;;;;;;;;;;;21.21;44.88;99945.91;2061862;28;3806;-72
2021/01/12 04:37:32;;;;;;;;;;;;;;;21.21;44.99;99948.75;2060834;28;4073;-72
2021/01/12 04:38:32;;;;;;;;;;;;;;;21.19;45.12;99945.44;2061118;28;4255;-72
2021/01/12 04:39:32;;;;;;;;;;;;;;;21.21;44.92;99937.38;2060777;28;3891;-71
2021/01/12 04:40:32;;;;;;;;;;;;;;;21.22;45.06;99939.00;2060182;28;4125;-71
2021/01/12 04:41:32;;;;;;;;;;;;;;;21.23;45.29;99942.69;2059368;28;3809;-71
2021/01/12 04:42:32;;;;;;;;;;;;;;;21.22;45.05;99935.34;2060970;28;3868;-71
2021/01/12 04:43:32;;;;;;;;;;;;;;;21.23;45.11;99934.16;2061494;28;4126;-71
2021/01/12 04:44:32;;;;;;;;;;;;;;;21.27;45.22;99930.16;2059689;28;3981;-71
2021/01/12 04:45:32;;;;;;;;;;;;;;;21.26;45.33;99933.41;2061026;28;4020;-71
2021/01/12 04:46:33;;;;;;;;;;;;;;;21.26;45.20;99928.53;2060728;28;4075;-71
2021/01/12 04:47:33;;;;;;;;;;;;;;;21.25;45.08;99926.88;2061229;28;4338;-71
2021/01/12 04:48:33;;;;;;;;;;;;;;;21.26;45.28;99927.72;2060122;28;3871;-71
2021/01/12 04:49:33;;;;;;;;;;;;;;;21.25;45.28;99915.47;2060608;28;3875;-71
2021/01/12 04:50:33;;;;;;;;;;;;;;;21.25;45.43;99921.19;2061371;28;4218;-72
2021/01/12 04:51:33;;;;;;;;;;;;;;;21.30;45.25;99918.03;2059206;28;4044;-72
2021/01/12 04:52:33;;;;;;;;;;;;;;;21.32;45.46;99914.81;2061064;28;4050;-72
2021/01/12 04:53:33;;;;;;;;;;;;;;;21.30;45.61;99905.81;2060885;28;3881;-71
2021/01/12 04:54:33;;;;;;;;;;;;;;;21.30;45.42;99911.50;2060305;28;3879;-71
2021/01/12 04:55:33;;;;;;;;;;;;;;;21.31;45.42;99914.00;2060770;28;4156;-71
2021/01/12 04:56:33;;;;;;;;;;;;;;;21.31;45.55;99916.84;2061410;28;4483;-72
2021/01/12 04:57:33;;;;;;;;;;;;;;;21.34;45.35;99909.56;2059921;28;3914;-72
2021/01/12 04:58:33;;;;;;;;;;;;;;;21.34;45.37;99913.25;2061007;28;4030;-71
2021/01/12 04:59:34;;;;;;;;;;;;;;;21.35;45.59;99908.38;2060462;28;4079;-71
2021/01/12 05:00:36;;;;;;;;;;;;;;;21.39;45.50;99905.59;2061726;28;4102;-71
2021/01/12 05:01:36;;;;;;;;;;;;;;;21.41;45.34;99906.06;2058247;28;4119;-71
2021/01/12 05:02:36;;;;;;;;;;;;;;;21.38;45.40;99889.75;2060825;28;3785;-71
2021/01/12 05:03:36;;;;;;;;;;;;;;;21.38;45.62;99898.28;2061052;28;3916;-72
2021/01/12 05:04:37;;;;;;;;;;;;;;;21.38;45.32;99896.25;2060776;28;4193;-71
2021/01/12 05:05:37;;;;;;;;;;;;;;;21.39;45.45;99900.72;2060503;28;4114;-72
2021/01/12 05:06:37;;;;;;;;;;;;;;;21.42;45.26;99896.31;2061143;28;4100;-71
2021/01/12 05:07:38;;;;;;;;;;;;;;;21.37;45.44;99897.47;2061486;28;3906;-71
2021/01/12 05:08:38;;;;;;;;;;;;;;;21.34;45.55;99895.34;2062049;28;4429;-71
2021/01/12 05:09:38;;;;;;;;;;;;;;;21.34;45.67;99884.78;2061316;28;3954;-71
2021/01/12 05:10:40;;;;;;;;;;;;;;;21.33;45.63;99888.81;2060836;28;3957;-71
2021/01/12 05:11:40;;;;;;;;;;;;;;;21.34;45.55;99886.81;2060334;28;4274;-71
2021/01/12 05:12:41;;;;;;;;;;;;;;;21.34;45.50;99886.81;2061439;28;3891;-71
2021/01/12 05:13:41;;;;;;;;;;;;;;;21.35;45.69;99880.72;2061005;28;4109;-72
2021/01/12 05:14:41;;;;;;;;;;;;;;;21.34;45.73;99890.47;2059540;28;4446;-71
2021/01/12 05:15:41;;;;;;;;;;;;;;;21.31;45.62;99885.53;2061053;28;3943;-71